Chachapoyas, Peru
Current Conditions -  °F | °C
As of 9:30 AM on Monday 26 Jan 2015 (Local Time) from SPJR Reporting Station
Moderate Fog Moderate Fog  
Wind Chill: 63°   Ceiling: 4300
Heat Index: 63°   Visibility: 6mi
Dew Point: 54°   Wind: 2mph
Humidity: 72%   Direction: NA
Pressure: 30.36"   Gusts: NA
Location:  6.23°S, 77.87°W
Report Text: SPJR 261430Z VRB02KT 9999 VCFG SCT026 BKN043 17/12 Q1028
Loading
Personal Weather Stations






























Interactive Weather Map New forecast layout! Learn more

10-Day Weather Forecast

Advertisements
Track Severe Weather on mobile